createdAt,value
2022-08-03T00:01:46.310Z,100069.50
2022-08-03T00:04:50.695Z,100079.19
2022-08-03T00:07:55.028Z,100078.44
2022-08-03T00:10:59.990Z,100086.59
2022-08-03T00:14:05.488Z,100091.13
2022-08-03T00:17:09.620Z,100086.38
2022-08-03T00:20:13.879Z,100087.59
2022-08-03T00:23:18.633Z,100083.91
2022-08-03T00:26:23.014Z,100086.16
2022-08-03T00:29:27.275Z,100088.38
2022-08-03T00:32:31.736Z,100088.13
2022-08-03T00:35:50.401Z,100087.69
2022-08-03T00:38:55.946Z,100088.25
2022-08-03T00:42:03.539Z,100087.88
2022-08-03T00:45:08.063Z,100078.44
2022-08-03T00:48:19.771Z,100063.56
2022-08-03T00:51:37.266Z,100066.03
2022-08-03T00:54:42.246Z,100070.16
2022-08-03T00:57:46.612Z,100071.63
2022-08-03T01:00:50.988Z,100060.13
2022-08-03T01:03:55.157Z,100065.81
2022-08-03T01:07:16.664Z,100067.84
2022-08-03T01:10:32.355Z,100063.34
2022-08-03T01:14:02.361Z,100078.34
2022-08-03T01:17:09.020Z,100066.69
2022-08-03T01:20:14.596Z,100064.25
2022-08-03T01:23:39.012Z,100060.31
2022-08-03T01:27:03.524Z,100063.97
2022-08-03T01:30:09.597Z,100055.47
2022-08-03T01:33:29.495Z,100058.19
2022-08-03T01:36:35.299Z,100055.94
2022-08-03T01:39:40.896Z,100054.03
2022-08-03T01:42:45.936Z,100051.94
2022-08-03T01:45:51.683Z,100055.25
2022-08-03T01:48:56.667Z,100044.16
2022-08-03T01:52:03.894Z,100054.34
2022-08-03T01:55:09.540Z,100053.56
2022-08-03T01:58:16.410Z,100047.94
2022-08-03T02:01:22.092Z,100048.44
2022-08-03T02:04:27.622Z,100048.97
2022-08-03T02:07:33.507Z,100038.16
2022-08-03T02:10:38.996Z,100042.78
2022-08-03T02:13:43.787Z,100046.22
2022-08-03T02:16:48.223Z,100040.84
2022-08-03T02:19:53.154Z,100044.28
2022-08-03T02:22:57.332Z,100036.47
2022-08-03T02:26:03.690Z,100039.31
2022-08-03T02:29:10.258Z,100044.97
2022-08-03T02:32:15.937Z,100036.75
2022-08-03T02:35:22.398Z,100046.06
2022-08-03T02:38:29.592Z,100041.00
2022-08-03T02:41:38.609Z,100025.06
2022-08-03T02:44:48.641Z,100020.69
2022-08-03T02:47:54.948Z,100025.94
2022-08-03T02:51:00.815Z,100025.13
2022-08-03T02:54:06.409Z,100016.63
2022-08-03T02:57:11.443Z,100017.56
2022-08-03T03:00:27.309Z,100015.88
2022-08-03T03:03:44.708Z,100013.22
2022-08-03T03:06:50.233Z,100011.94
2022-08-03T03:09:55.175Z,100009.06
2022-08-03T03:12:59.871Z,100007.44
2022-08-03T03:16:05.813Z,100002.72
2022-08-03T03:19:11.258Z,99997.16
2022-08-03T03:22:16.158Z,99991.06
2022-08-03T03:25:20.965Z,99994.28
2022-08-03T03:28:26.727Z,99983.81
2022-08-03T03:31:31.085Z,99979.28
2022-08-03T03:34:35.778Z,99983.38
2022-08-03T03:37:40.147Z,99981.66
2022-08-03T03:40:44.557Z,99971.13
2022-08-03T03:43:50.631Z,99974.66
2022-08-03T03:46:56.179Z,99964.06
2022-08-03T03:50:00.627Z,99973.81
2022-08-03T03:53:05.744Z,99975.50
2022-08-03T03:56:13.647Z,99972.34
2022-08-03T03:59:18.140Z,99970.22
2022-08-03T04:02:22.420Z,99975.16
2022-08-03T04:05:46.003Z,99967.81
2022-08-03T04:09:08.590Z,99976.72
2022-08-03T04:12:13.466Z,99967.34
2022-08-03T04:15:19.246Z,99949.09
2022-08-03T04:18:24.072Z,99942.94
2022-08-03T04:21:30.246Z,99921.66
2022-08-03T04:24:36.492Z,99907.84
2022-08-03T04:27:42.720Z,99903.47
2022-08-03T04:30:49.750Z,99906.00
2022-08-03T04:33:54.816Z,99910.84
2022-08-03T04:37:04.340Z,99917.06
2022-08-03T04:40:10.677Z,99918.53
2022-08-03T04:43:16.546Z,99943.75
2022-08-03T04:46:24.003Z,99974.09
2022-08-03T04:49:28.529Z,99985.94
2022-08-03T04:52:33.227Z,99949.81
2022-08-03T04:55:37.462Z,99906.44
2022-08-03T04:58:41.750Z,99933.28
2022-08-03T05:01:46.054Z,99941.22
2022-08-03T05:04:50.539Z,99947.22
2022-08-03T05:14:54.035Z,99900.13
2022-08-03T05:21:52.015Z,99874.25
2022-08-03T05:24:57.777Z,99905.72
2022-08-03T05:28:02.498Z,99910.69
2022-08-03T05:31:06.815Z,99924.69
2022-08-03T05:34:11.360Z,99903.75
2022-08-03T05:37:18.800Z,99924.09
2022-08-03T05:40:23.605Z,99927.06
2022-08-03T05:43:28.180Z,99928.06
2022-08-03T05:46:33.256Z,99857.88
2022-08-03T05:49:38.299Z,99869.66
2022-08-03T05:52:44.233Z,99898.09
2022-08-03T05:55:54.200Z,99900.66
2022-08-03T05:59:16.353Z,99887.78
2022-08-03T06:02:24.771Z,99927.59
2022-08-03T06:05:29.886Z,99936.72
2022-08-03T06:08:35.920Z,99952.91
2022-08-03T06:11:43.376Z,99940.63
2022-08-03T06:14:51.302Z,99949.78
2022-08-03T06:18:01.791Z,99953.66
2022-08-03T06:26:31.116Z,99983.09
2022-08-03T06:29:36.012Z,99984.69
2022-08-03T06:32:42.576Z,99975.69
2022-08-03T06:35:56.833Z,99973.13
2022-08-03T06:39:02.405Z,99967.06
2022-08-03T06:42:07.278Z,99972.00
2022-08-03T06:45:15.499Z,99979.97
2022-08-03T06:48:20.134Z,99988.56
2022-08-03T06:52:04.415Z,99973.13
2022-08-03T06:54:49.708Z,99980.78
2022-08-03T06:57:54.344Z,99969.09
2022-08-03T07:01:04.348Z,99958.56
2022-08-03T07:17:11.743Z,100042.16
2022-08-03T07:20:18.714Z,100066.72
2022-08-03T07:23:23.409Z,100041.03
2022-08-03T07:26:27.966Z,100014.78
2022-08-03T07:29:34.627Z,100016.50
2022-08-03T07:32:50.421Z,100002.28
2022-08-03T07:35:55.498Z,100012.56
2022-08-03T07:39:00.204Z,100022.75
2022-08-03T07:42:19.547Z,100014.16
2022-08-03T07:45:24.632Z,100012.25
2022-08-03T07:48:29.371Z,100006.56
2022-08-03T08:01:24.249Z,100005.47
2022-08-03T08:04:28.970Z,100013.31
2022-08-03T08:07:33.636Z,100021.78
2022-08-03T08:10:38.546Z,100027.63
2022-08-03T08:13:43.678Z,100031.91
2022-08-03T08:16:49.160Z,100011.72
2022-08-03T08:19:53.980Z,100025.72
2022-08-03T08:23:01.874Z,100009.25
2022-08-03T08:26:07.682Z,99997.03
2022-08-03T08:29:13.263Z,99997.09
2022-08-03T08:32:18.158Z,99988.09
2022-08-03T08:35:22.814Z,99995.91
2022-08-03T08:38:27.942Z,99987.66
2022-08-03T08:41:34.868Z,99952.06
2022-08-03T08:44:39.551Z,99962.38
2022-08-03T08:47:51.038Z,99967.91
2022-08-03T08:50:58.845Z,99960.31
2022-08-03T08:54:08.149Z,99972.00
2022-08-03T08:57:40.451Z,99958.53
2022-08-03T09:00:38.011Z,99952.38
2022-08-03T09:03:43.115Z,99958.72
2022-08-03T09:07:04.375Z,99967.50
2022-08-03T09:10:14.301Z,99984.19
2022-08-03T09:13:19.289Z,99970.94
2022-08-03T09:16:23.792Z,99972.72
2022-08-03T09:19:28.455Z,99966.38
2022-08-03T09:22:34.320Z,99976.59
2022-08-03T09:25:41.484Z,99864.47
2022-08-03T09:29:01.491Z,99974.44
2022-08-03T09:32:09.049Z,99969.97
2022-08-03T09:35:16.113Z,99932.78
2022-08-03T09:38:28.884Z,99969.41
2022-08-03T09:41:35.282Z,99975.78
2022-08-03T09:44:45.114Z,99972.38
2022-08-03T09:47:49.730Z,99962.41
2022-08-03T09:51:13.252Z,99968.25
2022-08-03T09:54:36.997Z,99972.59
2022-08-03T09:57:47.962Z,99891.38
2022-08-03T10:01:05.452Z,99956.25
2022-08-03T10:04:15.807Z,99973.00
2022-08-03T10:07:23.069Z,99976.84
2022-08-03T10:10:29.878Z,99944.88
2022-08-03T10:13:38.569Z,99934.31
2022-08-03T10:16:43.149Z,99973.31
2022-08-03T10:19:49.626Z,99996.16
2022-08-03T10:22:54.620Z,100006.31
2022-08-03T10:26:02.503Z,100021.47
2022-08-03T10:29:13.511Z,100025.31
2022-08-03T10:32:28.383Z,100025.78
2022-08-03T10:35:34.264Z,100024.91
2022-08-03T10:38:57.896Z,100012.94
2022-08-03T10:42:03.406Z,100031.47
2022-08-03T10:45:20.284Z,100028.34
2022-08-03T10:48:26.674Z,100002.72
2022-08-03T10:51:33.678Z,100015.84
2022-08-03T10:55:07.804Z,100019.69
2022-08-03T10:58:15.711Z,100023.03
2022-08-03T11:01:58.658Z,99945.16
2022-08-03T11:05:30.753Z,100020.78
2022-08-03T11:08:35.789Z,100033.63
2022-08-03T11:11:44.254Z,100027.91
2022-08-03T11:14:49.976Z,100037.63
2022-08-03T11:18:11.731Z,100046.63
2022-08-03T11:21:16.475Z,100045.47
2022-08-03T11:24:44.624Z,100052.28
2022-08-03T11:27:49.222Z,100060.09
2022-08-03T11:30:53.987Z,100052.38
2022-08-03T11:34:09.344Z,100061.09
2022-08-03T11:37:31.550Z,100069.94
2022-08-03T11:40:52.375Z,100067.94
2022-08-03T11:43:56.854Z,100057.25
2022-08-03T11:47:02.681Z,100059.38
2022-08-03T11:50:08.117Z,100047.22
2022-08-03T11:53:18.007Z,100053.75
2022-08-03T11:56:22.702Z,100046.22
2022-08-03T11:59:34.891Z,100048.44
2022-08-03T12:02:39.536Z,100051.97
2022-08-03T12:22:40.958Z,100069.19
2022-08-03T12:25:47.707Z,100055.56
2022-08-03T12:28:54.444Z,100066.47
2022-08-03T12:31:59.117Z,100061.47
2022-08-03T12:35:06.008Z,100056.78
2022-08-03T12:38:14.171Z,100062.50
2022-08-03T12:41:30.526Z,100054.84
2022-08-03T12:44:37.798Z,100055.72
2022-08-03T12:47:56.669Z,100047.94
2022-08-03T12:51:12.314Z,100061.47
2022-08-03T12:54:24.248Z,100043.50
2022-08-03T12:57:43.123Z,100049.72
2022-08-03T13:00:58.031Z,100050.13
2022-08-03T13:04:02.829Z,100059.81
2022-08-03T13:07:12.654Z,100056.53
2022-08-03T13:10:36.047Z,100041.53
2022-08-03T13:13:41.312Z,100031.78
2022-08-03T13:16:45.989Z,100034.09
2022-08-03T13:19:52.268Z,100038.03
2022-08-03T13:23:00.818Z,100038.38
2022-08-03T13:26:05.743Z,100046.72
2022-08-03T13:29:10.592Z,100041.00
2022-08-03T13:32:15.163Z,100029.19
2022-08-03T13:35:19.908Z,100049.94
2022-08-03T13:38:27.194Z,100045.38
2022-08-03T13:41:33.049Z,100042.16
2022-08-03T13:44:39.207Z,100058.09
2022-08-03T13:47:43.860Z,100036.63
2022-08-03T13:50:48.504Z,100032.72
2022-08-03T13:53:53.262Z,100067.50
2022-08-03T13:57:00.760Z,100059.16
2022-08-03T14:00:29.255Z,100072.00
2022-08-03T14:03:34.522Z,100062.44
2022-08-03T14:06:39.052Z,100063.00
2022-08-03T14:09:50.425Z,100063.19
2022-08-03T14:12:56.625Z,100059.00
2022-08-03T14:16:01.447Z,100060.97
2022-08-03T14:19:07.447Z,100069.41
2022-08-03T14:22:12.761Z,100059.50
2022-08-03T14:25:17.299Z,100058.41
2022-08-03T14:28:23.797Z,100060.72
2022-08-03T14:32:10.321Z,100045.59
2022-08-03T14:34:52.958Z,100056.28
2022-08-03T14:37:57.727Z,100056.28
2022-08-03T14:41:02.612Z,100063.19
2022-08-03T14:44:07.146Z,100057.66
2022-08-03T14:47:11.742Z,100051.25
2022-08-03T14:50:37.135Z,100047.13
2022-08-03T14:53:42.549Z,100046.72
2022-08-03T14:56:47.294Z,100049.69
2022-08-03T14:59:56.207Z,100050.91
2022-08-03T15:03:02.002Z,100050.03
2022-08-03T15:06:06.600Z,100046.13
2022-08-03T15:09:23.533Z,100042.06
2022-08-03T15:12:29.504Z,100042.56
2022-08-03T15:15:34.228Z,100029.28
2022-08-03T15:18:38.810Z,100048.69
2022-08-03T15:21:46.539Z,100043.31
2022-08-03T15:24:52.005Z,100048.22
2022-08-03T15:28:04.018Z,100046.25
2022-08-03T15:31:09.406Z,100044.66
2022-08-03T15:34:14.112Z,100038.50
2022-08-03T15:37:19.390Z,100042.81
2022-08-03T15:40:23.735Z,100042.03
2022-08-03T15:43:28.243Z,100039.88
2022-08-03T15:46:32.801Z,100035.94
2022-08-03T15:49:37.384Z,100025.00
2022-08-03T15:52:42.007Z,100023.91
2022-08-03T15:55:46.612Z,99996.53
2022-08-03T15:59:03.925Z,100037.38
2022-08-03T16:02:16.258Z,100043.56
2022-08-03T16:05:21.036Z,100039.88
2022-08-03T16:08:26.008Z,100038.78
2022-08-03T16:11:30.351Z,100048.44
2022-08-03T16:14:44.897Z,100034.97
2022-08-03T16:17:56.520Z,100039.00
2022-08-03T16:21:01.651Z,100035.44
2022-08-03T16:24:07.374Z,100047.59
2022-08-03T16:27:55.864Z,100051.03
2022-08-03T16:30:46.691Z,100042.31
2022-08-03T16:33:51.319Z,100056.56
2022-08-03T16:36:55.911Z,100072.28
2022-08-03T16:40:00.558Z,100063.91
2022-08-03T16:43:17.824Z,100065.84
2022-08-03T16:46:24.174Z,100070.56
2022-08-03T16:49:54.353Z,100080.88
2022-08-03T16:52:53.102Z,100077.13
2022-08-03T16:55:59.722Z,100070.19
2022-08-03T16:59:05.619Z,100060.31
2022-08-03T17:02:21.126Z,100071.13
2022-08-03T17:05:43.813Z,100063.09
2022-08-03T17:08:55.526Z,100061.66
2022-08-03T17:12:00.426Z,100053.81
2022-08-03T17:15:06.279Z,100048.66
2022-08-03T17:18:19.098Z,100040.53
2022-08-03T17:21:32.438Z,100054.03
2022-08-03T17:24:42.324Z,100049.84
2022-08-03T17:28:49.702Z,100056.22
2022-08-03T17:31:23.565Z,100044.28
2022-08-03T17:34:37.308Z,100052.53
2022-08-03T17:37:58.240Z,100042.09
2022-08-03T17:41:10.907Z,100053.06
2022-08-03T17:44:32.014Z,100051.69
2022-08-03T17:47:43.483Z,100051.50
2022-08-03T17:50:56.073Z,100062.19
2022-08-03T17:54:18.529Z,100058.59
2022-08-03T17:58:02.426Z,100073.06
2022-08-03T18:02:00.017Z,100057.78
2022-08-03T18:05:16.617Z,100050.09
2022-08-03T18:08:30.909Z,100082.16
2022-08-03T18:11:39.488Z,100077.53
2022-08-03T18:14:57.860Z,100067.38
2022-08-03T18:18:10.551Z,100077.81
2022-08-03T18:22:02.065Z,100072.28
2022-08-03T18:25:00.694Z,100072.75
2022-08-03T18:28:16.252Z,100066.38
2022-08-03T18:32:00.207Z,100077.19
2022-08-03T18:34:53.840Z,100063.78
2022-08-03T18:38:00.959Z,100066.59
2022-08-03T18:41:13.243Z,100061.88
2022-08-03T18:44:53.161Z,100069.34
2022-08-03T18:47:52.048Z,100076.88
2022-08-03T18:51:28.883Z,100074.59
2022-08-03T18:55:01.079Z,100083.47
2022-08-03T18:58:15.834Z,100092.16
2022-08-03T19:02:00.186Z,100087.66
2022-08-03T19:05:09.110Z,100095.91
2022-08-03T19:08:26.147Z,100103.66
2022-08-03T19:15:12.987Z,100093.94
2022-08-03T19:18:19.069Z,100102.09
2022-08-03T19:21:24.141Z,100113.16
2022-08-03T19:24:30.677Z,100105.25
2022-08-03T19:27:36.421Z,100114.38
2022-08-03T19:30:46.169Z,100106.28
2022-08-03T19:33:59.674Z,100132.19
2022-08-03T19:37:04.927Z,100131.78
2022-08-03T19:40:12.356Z,100122.44
2022-08-03T19:43:49.346Z,100120.78
2022-08-03T19:47:07.980Z,100135.00
2022-08-03T19:50:14.166Z,100125.31
2022-08-03T19:53:43.000Z,100149.28
2022-08-03T19:56:53.779Z,100101.03
2022-08-03T20:00:04.021Z,100142.84
2022-08-03T20:03:21.694Z,100133.59
2022-08-03T20:06:34.291Z,100144.66
2022-08-03T20:09:44.643Z,100132.50
2022-08-03T20:12:50.700Z,100134.16
2022-08-03T20:15:55.231Z,100134.25
2022-08-03T20:19:01.951Z,100137.44
2022-08-03T20:22:08.264Z,100148.56
2022-08-03T20:25:24.335Z,100152.41
2022-08-03T20:28:57.505Z,100158.38
2022-08-03T20:32:02.791Z,100167.31
2022-08-03T20:35:09.918Z,100155.31
2022-08-03T20:38:16.313Z,100159.31
2022-08-03T20:41:21.984Z,100162.34
2022-08-03T20:44:26.839Z,100153.41
2022-08-03T20:47:32.746Z,100172.16
2022-08-03T20:50:40.623Z,100160.53
2022-08-03T20:53:59.744Z,100154.25
2022-08-03T21:00:34.062Z,100161.09
2022-08-03T21:03:40.786Z,100149.28
2022-08-03T21:07:14.720Z,100161.56
2022-08-03T21:10:27.910Z,100162.09
2022-08-03T21:13:07.827Z,100132.44
2022-08-03T21:13:10.710Z,100070.94
2022-08-03T21:13:56.580Z,100170.16
2022-08-03T21:17:14.007Z,100164.41
2022-08-03T21:20:31.548Z,100155.63
2022-08-03T21:23:48.930Z,100173.94
2022-08-03T21:26:55.985Z,100177.66
2022-08-03T21:30:03.983Z,100181.75
2022-08-03T21:33:08.580Z,100179.16
2022-08-03T21:36:13.528Z,100169.84
2022-08-03T21:39:18.055Z,100169.13
2022-08-03T21:42:26.546Z,100179.03
2022-08-03T21:45:32.917Z,100180.63
2022-08-03T21:48:42.977Z,100166.13
2022-08-03T21:51:51.497Z,100172.19
2022-08-03T21:54:58.165Z,100172.34
2022-08-03T21:58:06.857Z,100163.69
2022-08-03T22:01:13.052Z,100166.16
2022-08-03T22:04:50.560Z,100173.56
2022-08-03T22:07:46.283Z,100171.19
2022-08-03T22:10:50.970Z,100175.09
2022-08-03T22:13:55.455Z,100172.78
2022-08-03T22:17:00.742Z,100160.53
2022-08-03T22:20:15.212Z,100163.41
2022-08-03T22:23:23.782Z,100164.13
2022-08-03T22:26:34.113Z,100175.50
2022-08-03T22:29:43.293Z,100176.50
2022-08-03T22:32:50.597Z,100180.19
2022-08-03T22:35:59.995Z,100184.94
2022-08-03T22:39:04.894Z,100188.03
2022-08-03T22:42:10.354Z,100185.63
2022-08-03T22:46:07.617Z,100189.19
2022-08-03T22:48:41.621Z,100165.22
2022-08-03T22:51:46.909Z,100169.53
2022-08-03T22:54:53.180Z,100187.50
2022-08-03T22:57:57.943Z,100178.44
2022-08-03T23:01:14.018Z,100181.38
2022-08-03T23:04:20.743Z,100175.69
2022-08-03T23:07:32.698Z,100183.00
2022-08-03T23:10:41.512Z,100180.16
2022-08-03T23:13:55.098Z,100190.03
2022-08-03T23:17:04.980Z,100186.44
2022-08-03T23:20:11.038Z,100123.03
2022-08-03T23:23:19.845Z,100179.72
2022-08-03T23:26:27.655Z,100177.75
2022-08-03T23:29:35.025Z,100175.00
2022-08-03T23:32:43.011Z,100118.69
2022-08-03T23:36:28.962Z,100167.84
2022-08-03T23:39:35.114Z,100152.25
2022-08-03T23:42:42.233Z,100138.03
2022-08-03T23:45:49.303Z,100169.72
2022-08-03T23:48:56.250Z,100170.41
2022-08-03T23:52:15.973Z,100176.38
2022-08-03T23:55:36.979Z,100176.19
2022-08-03T23:58:54.271Z,100168.00
